Carlton, Kansas
Current Conditions -  °F | °C
As of 11:53 PM on Friday 19 Dec 2014 (Local Time) from KSLN Reporting Station
Haze Haze  
Wind Chill: 23°   Ceiling: Unl
Heat Index: 31°   Visibility: 5mi
Dew Point: 29°   Wind: 9mph
Humidity: 92%   Direction: 170°S
Pressure: 30.13"   Gusts: NA
Location:  38.6868°N, 97.4052°W
Report Text: KSLN 200553Z AUTO 17008KT 5SM BR CLR M01/M02 A3013 RMK AO2 SLP213 I6000 T10061017 10017 21011 400171011 56005
Loading
Personal Weather Stations






























Interactive Weather Map New forecast layout! Learn more

10-Day Weather Forecast

Advertisements
Track Severe Weather on mobile